Albany, Pennsylvania
Current Conditions -  °F | °C
As of 7:54 PM on Wednesday 22 Oct 2014 (Local Time) from KRDG Reporting Station
Light Rain Light Rain  
Wind Chill: 54°   Ceiling: 2700
Heat Index: 54°   Visibility: 10mi
Dew Point: 46°   Wind: 21mph
Humidity: 75%   Direction: 340°NNW
Pressure: 29.91"   Gusts: 28mph
Location:  40.6329°N, 75.8768°W
Report Text: KRDG 222354Z 34018G24KT 10SM -RA OVC027 12/08 A2991 RMK AO2 RAB2256 SLP133 P0001 60001 T01220078 10139 20122 51002
Loading
Personal Weather Stations






























Interactive Weather Map
Tropical Storm Tracking
New forecast layout! Learn more

10-Day Weather Forecast

Advertisements
Track Severe Weather on mobile